Fancy Farm, Kentucky
Current Conditions -  °F | °C
As of 5:15 PM on Tuesday 21 Oct 2014 (Local Time) from KM25 Reporting Station
Clear Clear  
Wind Chill: 68°   Ceiling: Unl
Heat Index: 68°   Visibility: 10mi
Dew Point: 46°   Wind: 7mph
Humidity: 46%   Direction: 30°NNE
Pressure: 30.07"   Gusts: NA
Location:  36.8°N, 88.79°W
Report Text: KM25 212215Z AUTO 03006KT 10SM CLR 20/08 A3007 RMK AO2
Loading
Personal Weather Stations






























Interactive Weather Map
Tropical Storm Tracking
New forecast layout! Learn more

10-Day Weather Forecast

Advertisements
Track Severe Weather on mobile